sensor_id;sensor_type;location;lat;lon;timestamp;pressure;altitude;pressure_sealevel;temperature;humidity
6347;BME280;3206;42.666;23.600;2023-02-12T14:25:31;96403.19;;;5.41;100.00
6347;BME280;3206;42.666;23.600;2023-02-12T14:28:06;96399.25;;;5.71;100.00
6347;BME280;3206;42.666;23.600;2023-02-12T14:30:38;96407.78;;;6.02;100.00
6347;BME280;3206;42.666;23.600;2023-02-12T14:33:24;96411.28;;;6.26;100.00
6347;BME280;3206;42.666;23.600;2023-02-12T14:36:17;96418.16;;;6.27;100.00
6347;BME280;3206;42.666;23.600;2023-02-12T14:38:59;96415.41;;;6.08;100.00
6347;BME280;3206;42.666;23.600;2023-02-12T14:41:37;96420.91;;;6.92;100.00
6347;BME280;3206;42.666;23.600;2023-02-12T14:44:36;96427.59;;;8.00;89.08
6347;BME280;3206;42.666;23.600;2023-02-12T14:47:04;96424.59;;;8.52;80.09
6347;BME280;3206;42.666;23.600;2023-02-12T14:49:38;96429.81;;;8.44;78.54
6347;BME280;3206;42.666;23.600;2023-02-12T14:52:14;96440.09;;;7.81;79.34
6347;BME280;3206;42.666;23.600;2023-02-12T14:54:44;96441.59;;;6.72;89.94
6347;BME280;3206;42.666;23.600;2023-02-12T14:57:21;96441.28;;;6.73;95.39
6347;BME280;3206;42.666;23.600;2023-02-12T14:59:51;96447.41;;;6.74;97.48
6347;BME280;3206;42.666;23.600;2023-02-12T15:02:23;96454.91;;;6.38;100.00
6347;BME280;3206;42.666;23.600;2023-02-12T15:04:52;96461.97;;;6.48;100.00
6347;BME280;3206;42.666;23.600;2023-02-12T15:07:26;96465.50;;;6.43;99.76
6347;BME280;3206;42.666;23.600;2023-02-12T15:09:57;96464.97;;;6.41;100.00
6347;BME280;3206;42.666;23.600;2023-02-12T15:12:36;96465.16;;;6.21;100.00
6347;BME280;3206;42.666;23.600;2023-02-12T15:15:11;96471.91;;;6.09;100.00
6347;BME280;3206;42.666;23.600;2023-02-12T15:17:52;96477.56;;;5.97;100.00
6347;BME280;3206;42.666;23.600;2023-02-12T15:20:24;96491.38;;;5.89;100.00
6347;BME280;3206;42.666;23.600;2023-02-12T15:22:55;96498.06;;;5.82;100.00
6347;BME280;3206;42.666;23.600;2023-02-12T15:25:24;96485.91;;;5.76;100.00
6347;BME280;3206;42.666;23.600;2023-02-12T15:27:54;96515.81;;;5.86;100.00
6347;BME280;3206;42.666;23.600;2023-02-12T15:30:23;96512.41;;;5.81;100.00
6347;BME280;3206;42.666;23.600;2023-02-12T15:32:51;96502.69;;;5.61;100.00
6347;BME280;3206;42.666;23.600;2023-02-12T15:35:22;96482.41;;;5.42;100.00
6347;BME280;3206;42.666;23.600;2023-02-12T15:37:50;96525.25;;;5.54;100.00
6347;BME280;3206;42.666;23.600;2023-02-12T15:40:18;96531.59;;;5.58;100.00
6347;BME280;3206;42.666;23.600;2023-02-12T15:42:53;96522.63;;;5.49;100.00
6347;BME280;3206;42.666;23.600;2023-02-12T15:45:23;96517.03;;;4.92;100.00
6347;BME280;3206;42.666;23.600;2023-02-12T15:48:01;96521.34;;;4.43;100.00
6347;BME280;3206;42.666;23.600;2023-02-12T15:50:31;96519.25;;;4.25;100.00
6347;BME280;3206;42.666;23.600;2023-02-12T15:52:58;96531.38;;;4.61;100.00
6347;BME280;3206;42.666;23.600;2023-02-12T15:55:27;96520.53;;;4.58;100.00
6347;BME280;3206;42.666;23.600;2023-02-12T15:57:58;96531.69;;;4.45;100.00
6347;BME280;3206;42.666;23.600;2023-02-12T16:00:28;96538.28;;;4.32;100.00
6347;BME280;3206;42.666;23.600;2023-02-12T16:02:55;96543.03;;;4.05;100.00
6347;BME280;3206;42.666;23.600;2023-02-12T16:05:22;96545.97;;;4.14;100.00
6347;BME280;3206;42.666;23.600;2023-02-12T16:07:50;96553.34;;;4.02;100.00
6347;BME280;3206;42.666;23.600;2023-02-12T16:10:18;96554.47;;;3.30;100.00
6347;BME280;3206;42.666;23.600;2023-02-12T16:12:46;96567.16;;;3.33;100.00
6347;BME280;3206;42.666;23.600;2023-02-12T16:15:27;96562.03;;;3.06;100.00
6347;BME280;3206;42.666;23.600;2023-02-12T16:17:56;96568.75;;;3.34;100.00
6347;BME280;3206;42.666;23.600;2023-02-12T16:20:25;96574.63;;;3.51;100.00
6347;BME280;3206;42.666;23.600;2023-02-12T16:22:53;96581.22;;;3.53;100.00
6347;BME280;3206;42.666;23.600;2023-02-12T16:25:22;96593.16;;;3.61;100.00
6347;BME280;3206;42.666;23.600;2023-02-12T16:27:56;96594.44;;;3.48;100.00
6347;BME280;3206;42.666;23.600;2023-02-12T16:30:30;96600.78;;;3.62;100.00
6347;BME280;3206;42.666;23.600;2023-02-12T16:32:58;96606.88;;;3.58;100.00
6347;BME280;3206;42.666;23.600;2023-02-12T16:35:29;96603.72;;;3.61;100.00
6347;BME280;3206;42.666;23.600;2023-02-12T16:38:00;96611.03;;;3.44;100.00
6347;BME280;3206;42.666;23.600;2023-02-12T16:40:33;96598.34;;;3.41;100.00
6347;BME280;3206;42.666;23.600;2023-02-12T16:43:23;96604.47;;;3.46;100.00
6347;BME280;3206;42.666;23.600;2023-02-12T16:46:01;96607.59;;;3.43;100.00
6347;BME280;3206;42.666;23.600;2023-02-12T16:48:28;96609.16;;;3.34;100.00
6347;BME280;3206;42.666;23.600;2023-02-12T16:50:57;96588.19;;;3.18;100.00
6347;BME280;3206;42.666;23.600;2023-02-12T16:53:38;96622.59;;;3.28;100.00
6347;BME280;3206;42.666;23.600;2023-02-12T16:56:12;96617.16;;;3.03;100.00
6347;BME280;3206;42.666;23.600;2023-02-12T16:58:41;96619.03;;;2.66;100.00
6347;BME280;3206;42.666;23.600;2023-02-12T17:01:15;96630.59;;;2.60;100.00
6347;BME280;3206;42.666;23.600;2023-02-12T17:03:44;96643.72;;;2.23;100.00
6347;BME280;3206;42.666;23.600;2023-02-12T17:06:12;96643.88;;;2.43;100.00
6347;BME280;3206;42.666;23.600;2023-02-12T17:08:39;96639.56;;;2.64;100.00
6347;BME280;3206;42.666;23.600;2023-02-12T17:11:05;96635.44;;;2.73;100.00
6347;BME280;3206;42.666;23.600;2023-02-12T17:13:32;96646.03;;;2.78;100.00
6347;BME280;3206;42.666;23.600;2023-02-12T17:15:59;96652.38;;;2.82;100.00
6347;BME280;3206;42.666;23.600;2023-02-12T17:18:28;96651.00;;;2.74;100.00
6347;BME280;3206;42.666;23.600;2023-02-12T17:20:59;96666.69;;;2.91;100.00
6347;BME280;3206;42.666;23.600;2023-02-12T17:23:27;96643.91;;;2.80;100.00
6347;BME280;3206;42.666;23.600;2023-02-12T17:25:54;96683.06;;;2.93;100.00
6347;BME280;3206;42.666;23.600;2023-02-12T17:28:21;96684.66;;;2.94;100.00
6347;BME280;3206;42.666;23.600;2023-02-12T17:30:49;96694.72;;;3.02;100.00
6347;BME280;3206;42.666;23.600;2023-02-12T17:33:17;96691.63;;;3.10;100.00
6347;BME280;3206;42.666;23.600;2023-02-12T17:35:45;96697.44;;;3.12;100.00
6347;BME280;3206;42.666;23.600;2023-02-12T17:38:11;96692.94;;;3.07;100.00
6347;BME280;3206;42.666;23.600;2023-02-12T17:40:38;96687.09;;;3.05;100.00
6347;BME280;3206;42.666;23.600;2023-02-12T17:43:05;96689.19;;;2.98;100.00
6347;BME280;3206;42.666;23.600;2023-02-12T17:45:32;96692.94;;;3.12;100.00
6347;BME280;3206;42.666;23.600;2023-02-12T17:47:58;96712.00;;;2.83;100.00
6347;BME280;3206;42.666;23.600;2023-02-12T17:50:25;96707.66;;;2.98;100.00
6347;BME280;3206;42.666;23.600;2023-02-12T17:52:53;96714.66;;;2.88;100.00
6347;BME280;3206;42.666;23.600;2023-02-12T17:55:20;96713.38;;;2.90;100.00
6347;BME280;3206;42.666;23.600;2023-02-12T17:57:50;96702.50;;;2.24;100.00
6347;BME280;3206;42.666;23.600;2023-02-12T18:00:18;96719.69;;;2.58;100.00
6347;BME280;3206;42.666;23.600;2023-02-12T18:02:45;96714.66;;;2.88;100.00
6347;BME280;3206;42.666;23.600;2023-02-12T18:05:12;96713.41;;;2.95;100.00
6347;BME280;3206;42.666;23.600;2023-02-12T18:07:39;96718.81;;;3.10;100.00
6347;BME280;3206;42.666;23.600;2023-02-12T18:10:09;96721.31;;;3.27;100.00
6347;BME280;3206;42.666;23.600;2023-02-12T18:12:36;96713.41;;;3.27;100.00
6347;BME280;3206;42.666;23.600;2023-02-12T18:15:04;96712.59;;;3.26;100.00
6347;BME280;3206;42.666;23.600;2023-02-12T18:17:31;96719.63;;;3.16;100.00
6347;BME280;3206;42.666;23.600;2023-02-12T18:19:57;96707.97;;;3.07;100.00
6347;BME280;3206;42.666;23.600;2023-02-12T18:22:24;96714.75;;;2.98;100.00
6347;BME280;3206;42.666;23.600;2023-02-12T18:24:51;96715.00;;;2.65;100.00
6347;BME280;3206;42.666;23.600;2023-02-12T18:27:19;96713.97;;;2.66;100.00
6347;BME280;3206;42.666;23.600;2023-02-12T18:29:46;96718.50;;;2.70;100.00
6347;BME280;3206;42.666;23.600;2023-02-12T18:32:13;96713.59;;;2.84;100.00
6347;BME280;3206;42.666;23.600;2023-02-12T18:34:41;96703.38;;;2.61;100.00
6347;BME280;3206;42.666;23.600;2023-02-12T18:37:08;96718.09;;;2.83;100.00
6347;BME280;3206;42.666;23.600;2023-02-12T18:39:35;96723.50;;;3.03;100.00
6347;BME280;3206;42.666;23.600;2023-02-12T18:42:02;96727.78;;;3.09;100.00
6347;BME280;3206;42.666;23.600;2023-02-12T18:44:30;96717.50;;;3.13;100.00
6347;BME280;3206;42.666;23.600;2023-02-12T18:46:57;96728.72;;;3.30;100.00
6347;BME280;3206;42.666;23.600;2023-02-12T18:49:24;96734.03;;;3.35;100.00
6347;BME280;3206;42.666;23.600;2023-02-12T18:51:51;96725.53;;;3.28;100.00
6347;BME280;3206;42.666;23.600;2023-02-12T18:54:17;96741.44;;;3.38;100.00
6347;BME280;3206;42.666;23.600;2023-02-12T18:56:45;96744.06;;;3.38;100.00
6347;BME280;3206;42.666;23.600;2023-02-12T18:59:13;96749.91;;;3.40;100.00
6347;BME280;3206;42.666;23.600;2023-02-12T19:01:42;96752.50;;;3.35;100.00
6347;BME280;3206;42.666;23.600;2023-02-12T19:04:10;96746.28;;;2.83;100.00
6347;BME280;3206;42.666;23.600;2023-02-12T19:06:39;96769.72;;;3.06;100.00
6347;BME280;3206;42.666;23.600;2023-02-12T19:09:06;96769.72;;;3.06;100.00
6347;BME280;3206;42.666;23.600;2023-02-12T19:11:33;96778.19;;;3.08;100.00
6347;BME280;3206;42.666;23.600;2023-02-12T19:14:00;96782.34;;;3.04;100.00
6347;BME280;3206;42.666;23.600;2023-02-12T19:16:27;96778.94;;;3.03;100.00
6347;BME280;3206;42.666;23.600;2023-02-12T19:18:56;96771.69;;;2.89;100.00
6347;BME280;3206;42.666;23.600;2023-02-12T19:21:25;96783.00;;;2.84;100.00
6347;BME280;3206;42.666;23.600;2023-02-12T19:23:52;96772.59;;;2.73;100.00
6347;BME280;3206;42.666;23.600;2023-02-12T19:26:20;96769.31;;;2.92;100.00
6347;BME280;3206;42.666;23.600;2023-02-12T19:28:47;96761.69;;;2.91;100.00
6347;BME280;3206;42.666;23.600;2023-02-12T19:31:15;96781.88;;;3.07;100.00
6347;BME280;3206;42.666;23.600;2023-02-12T19:33:42;96780.56;;;2.78;100.00
6347;BME280;3206;42.666;23.600;2023-02-12T19:36:12;96770.50;;;2.75;100.00
6347;BME280;3206;42.666;23.600;2023-02-12T19:38:39;96766.91;;;1.69;100.00
6347;BME280;3206;42.666;23.600;2023-02-12T19:41:08;96767.91;;;2.05;100.00
6347;BME280;3206;42.666;23.600;2023-02-12T19:43:35;96774.25;;;2.31;100.00
6347;BME280;3206;42.666;23.600;2023-02-12T19:46:03;96781.06;;;2.27;100.00
6347;BME280;3206;42.666;23.600;2023-02-12T19:48:30;96781.78;;;2.22;100.00
6347;BME280;3206;42.666;23.600;2023-02-12T19:50:57;96794.91;;;1.96;100.00
6347;BME280;3206;42.666;23.600;2023-02-12T19:53:25;96787.69;;;2.08;100.00
6347;BME280;3206;42.666;23.600;2023-02-12T19:55:52;96791.94;;;1.71;100.00
6347;BME280;3206;42.666;23.600;2023-02-12T19:58:19;96787.31;;;1.78;100.00
6347;BME280;3206;42.666;23.600;2023-02-12T20:00:45;96778.69;;;1.66;100.00
6347;BME280;3206;42.666;23.600;2023-02-12T20:03:12;65057.09;;;-141.88;100.00
6347;BME280;3206;42.666;23.600;2023-02-12T20:05:39;65057.09;;;-141.88;100.00
6347;BME280;3206;42.666;23.600;2023-02-12T20:08:16;65057.09;;;-141.88;100.00
6347;BME280;3206;42.666;23.600;2023-02-12T20:10:45;65057.09;;;-141.88;100.00
6347;BME280;3206;42.666;23.600;2023-02-12T20:13:14;65057.09;;;-141.88;100.00
6347;BME280;3206;42.666;23.600;2023-02-12T20:15:43;65057.09;;;-141.88;100.00
6347;BME280;3206;42.666;23.600;2023-02-12T20:18:10;65057.09;;;-141.88;100.00
6347;BME280;3206;42.666;23.600;2023-02-12T20:20:37;65057.09;;;-141.88;100.00
6347;BME280;3206;42.666;23.600;2023-02-12T20:23:04;65057.09;;;-141.88;100.00
6347;BME280;3206;42.666;23.600;2023-02-12T20:25:31;65057.09;;;-141.88;100.00
6347;BME280;3206;42.666;23.600;2023-02-12T20:27:59;65057.09;;;-141.88;100.00
6347;BME280;3206;42.666;23.600;2023-02-12T20:30:26;65057.09;;;-141.88;100.00
6347;BME280;3206;42.666;23.600;2023-02-12T20:32:52;65057.09;;;-141.88;100.00
6347;BME280;3206;42.666;23.600;2023-02-12T20:35:19;65057.09;;;-141.88;100.00
6347;BME280;3206;42.666;23.600;2023-02-12T20:37:46;65057.09;;;-141.88;100.00
6347;BME280;3206;42.666;23.600;2023-02-12T20:40:12;65057.09;;;-141.88;100.00
6347;BME280;3206;42.666;23.600;2023-02-12T20:42:39;65057.09;;;-141.88;100.00
6347;BME280;3206;42.666;23.600;2023-02-12T20:45:08;65057.09;;;-141.88;100.00
6347;BME280;3206;42.666;23.600;2023-02-12T20:47:34;65057.09;;;-141.88;100.00
6347;BME280;3206;42.666;23.600;2023-02-12T20:50:01;65057.09;;;-141.88;100.00
6347;BME280;3206;42.666;23.600;2023-02-12T20:52:27;65057.09;;;-141.88;100.00
6347;BME280;3206;42.666;23.600;2023-02-12T20:54:54;65057.09;;;-141.88;100.00
6347;BME280;3206;42.666;23.600;2023-02-12T20:57:21;65057.09;;;-141.88;100.00
6347;BME280;3206;42.666;23.600;2023-02-12T20:59:48;65057.09;;;-141.88;100.00
6347;BME280;3206;42.666;23.600;2023-02-12T21:02:16;65057.09;;;-141.88;100.00
6347;BME280;3206;42.666;23.600;2023-02-12T21:04:43;65057.09;;;-141.88;100.00
6347;BME280;3206;42.666;23.600;2023-02-12T21:07:10;65057.09;;;-141.88;100.00
6347;BME280;3206;42.666;23.600;2023-02-12T21:09:36;65057.09;;;-141.88;100.00
6347;BME280;3206;42.666;23.600;2023-02-12T21:12:03;65057.09;;;-141.88;100.00
6347;BME280;3206;42.666;23.600;2023-02-12T21:14:30;65057.09;;;-141.88;100.00
6347;BME280;3206;42.666;23.600;2023-02-12T21:16:57;65057.09;;;-141.88;100.00
6347;BME280;3206;42.666;23.600;2023-02-12T21:19:26;65057.09;;;-141.88;100.00
6347;BME280;3206;42.666;23.600;2023-02-12T21:21:53;65057.09;;;-141.88;100.00
6347;BME280;3206;42.666;23.600;2023-02-12T21:24:22;65057.09;;;-141.88;100.00
6347;BME280;3206;42.666;23.600;2023-02-12T21:26:49;65057.09;;;-141.88;100.00
6347;BME280;3206;42.666;23.600;2023-02-12T21:29:17;65057.09;;;-141.88;100.00
6347;BME280;3206;42.666;23.600;2023-02-12T21:31:45;65057.09;;;-141.88;100.00
6347;BME280;3206;42.666;23.600;2023-02-12T21:34:13;65057.09;;;-141.88;100.00
6347;BME280;3206;42.666;23.600;2023-02-12T21:36:43;65057.09;;;-141.88;100.00
6347;BME280;3206;42.666;23.600;2023-02-12T21:39:12;65057.09;;;-141.88;100.00
6347;BME280;3206;42.666;23.600;2023-02-12T21:41:40;65057.09;;;-141.88;100.00
6347;BME280;3206;42.666;23.600;2023-02-12T21:44:11;65057.09;;;-141.88;100.00
6347;BME280;3206;42.666;23.600;2023-02-12T21:46:38;65057.09;;;-141.88;100.00
6347;BME280;3206;42.666;23.600;2023-02-12T21:49:06;65057.09;;;-141.88;100.00
6347;BME280;3206;42.666;23.600;2023-02-12T21:51:35;65057.09;;;-141.88;100.00
6347;BME280;3206;42.666;23.600;2023-02-12T21:54:05;65057.09;;;-141.88;100.00
6347;BME280;3206;42.666;23.600;2023-02-12T21:56:34;65057.09;;;-141.88;100.00
6347;BME280;3206;42.666;23.600;2023-02-12T21:59:01;65057.09;;;-141.88;100.00
6347;BME280;3206;42.666;23.600;2023-02-12T22:01:32;65057.09;;;-141.88;100.00
6347;BME280;3206;42.666;23.600;2023-02-12T22:03:59;65057.09;;;-141.88;100.00
6347;BME280;3206;42.666;23.600;2023-02-12T22:06:26;65057.09;;;-141.88;100.00
6347;BME280;3206;42.666;23.600;2023-02-12T22:08:54;65057.09;;;-141.88;100.00
6347;BME280;3206;42.666;23.600;2023-02-12T22:11:22;65057.09;;;-141.88;100.00
6347;BME280;3206;42.666;23.600;2023-02-12T22:13:49;65057.09;;;-141.88;100.00
6347;BME280;3206;42.666;23.600;2023-02-12T22:16:17;65057.09;;;-141.88;100.00
6347;BME280;3206;42.666;23.600;2023-02-12T22:18:45;65057.09;;;-141.88;100.00
6347;BME280;3206;42.666;23.600;2023-02-12T22:21:13;65057.09;;;-141.88;100.00
6347;BME280;3206;42.666;23.600;2023-02-12T22:23:41;65057.09;;;-141.88;100.00
6347;BME280;3206;42.666;23.600;2023-02-12T22:26:10;65057.09;;;-141.88;100.00
6347;BME280;3206;42.666;23.600;2023-02-12T22:28:40;65057.09;;;-141.88;100.00
6347;BME280;3206;42.666;23.600;2023-02-12T22:31:08;65057.09;;;-141.88;100.00
6347;BME280;3206;42.666;23.600;2023-02-12T22:33:35;65057.09;;;-141.88;100.00
6347;BME280;3206;42.666;23.600;2023-02-12T22:36:03;65057.09;;;-141.88;100.00
6347;BME280;3206;42.666;23.600;2023-02-12T22:38:30;65057.09;;;-141.88;100.00
6347;BME280;3206;42.666;23.600;2023-02-12T22:40:58;65057.09;;;-141.88;100.00
6347;BME280;3206;42.666;23.600;2023-02-12T22:43:27;65057.09;;;-141.88;100.00
6347;BME280;3206;42.666;23.600;2023-02-12T22:45:55;65057.09;;;-141.88;100.00
6347;BME280;3206;42.666;23.600;2023-02-12T22:48:22;65057.09;;;-141.88;100.00
6347;BME280;3206;42.666;23.600;2023-02-12T22:50:49;65057.09;;;-141.88;100.00
6347;BME280;3206;42.666;23.600;2023-02-12T22:53:16;65057.09;;;-141.88;100.00
6347;BME280;3206;42.666;23.600;2023-02-12T22:55:42;65057.09;;;-141.88;100.00
6347;BME280;3206;42.666;23.600;2023-02-12T22:58:09;65057.09;;;-141.88;100.00
6347;BME280;3206;42.666;23.600;2023-02-12T23:00:36;65057.09;;;-141.88;100.00
6347;BME280;3206;42.666;23.600;2023-02-12T23:03:04;65057.09;;;-141.88;100.00
6347;BME280;3206;42.666;23.600;2023-02-12T23:05:34;65057.09;;;-141.88;100.00
6347;BME280;3206;42.666;23.600;2023-02-12T23:08:00;65057.09;;;-141.88;100.00
6347;BME280;3206;42.666;23.600;2023-02-12T23:10:27;65057.09;;;-141.88;100.00
6347;BME280;3206;42.666;23.600;2023-02-12T23:12:53;65057.09;;;-141.88;100.00
6347;BME280;3206;42.666;23.600;2023-02-12T23:15:20;65057.09;;;-141.88;100.00
6347;BME280;3206;42.666;23.600;2023-02-12T23:17:47;65057.09;;;-141.88;100.00
6347;BME280;3206;42.666;23.600;2023-02-12T23:20:15;65057.09;;;-141.88;100.00
6347;BME280;3206;42.666;23.600;2023-02-12T23:22:42;65057.09;;;-141.88;100.00
6347;BME280;3206;42.666;23.600;2023-02-12T23:25:09;65057.09;;;-141.88;100.00
6347;BME280;3206;42.666;23.600;2023-02-12T23:27:36;65057.09;;;-141.88;100.00
6347;BME280;3206;42.666;23.600;2023-02-12T23:30:07;65057.09;;;-141.88;100.00
6347;BME280;3206;42.666;23.600;2023-02-12T23:32:34;65057.09;;;-141.88;100.00
6347;BME280;3206;42.666;23.600;2023-02-12T23:35:00;65057.09;;;-141.88;100.00
6347;BME280;3206;42.666;23.600;2023-02-12T23:37:28;65057.09;;;-141.88;100.00
6347;BME280;3206;42.666;23.600;2023-02-12T23:39:55;65057.09;;;-141.88;100.00
6347;BME280;3206;42.666;23.600;2023-02-12T23:42:22;65057.09;;;-141.88;100.00
6347;BME280;3206;42.666;23.600;2023-02-12T23:44:48;65057.09;;;-141.88;100.00
6347;BME280;3206;42.666;23.600;2023-02-12T23:47:15;65057.09;;;-141.88;100.00
6347;BME280;3206;42.666;23.600;2023-02-12T23:49:42;65057.09;;;-141.88;100.00
6347;BME280;3206;42.666;23.600;2023-02-12T23:52:08;65057.09;;;-141.88;100.00
6347;BME280;3206;42.666;23.600;2023-02-12T23:54:36;65057.09;;;-141.88;100.00
6347;BME280;3206;42.666;23.600;2023-02-12T23:57:03;65057.09;;;-141.88;100.00
6347;BME280;3206;42.666;23.600;2023-02-12T23:59:30;65057.09;;;-141.88;100.00
